EST,Max TemperatureF,Mean TemperatureF,Min TemperatureF,Max Dew PointF,MeanDew PointF,Min DewpointF,Max Humidity, Mean Humidity, Min Humidity, Max Sea Level PressureIn, Mean Sea Level PressureIn, Min Sea Level PressureIn, Max VisibilityMiles, Mean VisibilityMiles, Min VisibilityMiles, Max Wind SpeedMPH, Mean Wind SpeedMPH, Max Gust SpeedMPH,PrecipitationIn, CloudCover, Events, WindDirDegrees
2014-1-1,15,14,10,12,11,9,93,85,79,30.28,30.22,30.13,10,4,1,,,,0.00,8,Snow,-1
2014-1-2,14,8,1,10,5,-6,92,79,61,30.29,30.12,30.03,10,5,1,17,9,25,0.00,7,Snow,2
2014-1-3,12,0,-11,3,-4,-15,92,72,52,30.42,30.29,30.04,10,10,1,21,6,28,0.00,1,Snow,182
2014-1-4,30,21,12,27,15,5,100,71,59,30.04,29.94,29.88,10,9,2,23,16,30,0.00,2,Snow,203
2014-1-5,28,22,17,27,23,14,100,94,86,29.98,29.84,29.69,5,2,0,20,4,30,0.00,8,Snow,358
2014-1-6,17,0,-16,14,-12,-26,86,74,59,30.14,29.99,29.74,10,6,0,22,16,33,0.00,4,Snow,252
2014-1-7,-2,-8,-14,-8,-15,-22,92,75,65,30.28,30.21,30.12,10,10,2,18,14,25,0.00,0,,227
2014-1-8,15,5,-5,7,-1,-9,92,84,62,30.47,30.35,30.26,10,10,5,5,0,,0.00,0,,195
2014-1-9,23,7,-7,21,6,-11,100,88,73,30.50,30.40,30.21,10,6,0,14,3,17,0.00,4,Fog-Snow,123
2014-1-10,39,32,24,39,33,21,100,98,86,30.20,29.95,29.61,10,3,0,17,8,22,0.00,8,Fog-Rain-Snow,161
2014-1-11,39,36,32,39,34,28,100,94,81,29.69,29.50,29.39,10,4,0,18,11,28,0.00,8,Fog-Rain-Snow,238
2014-1-12,39,34,28,30,28,25,93,84,70,29.94,29.80,29.70,10,9,4,18,11,24,0.00,4,,212
2014-1-13,42,38,35,36,32,30,93,78,70,29.70,29.62,29.54,10,10,10,16,12,22,0.00,2,,220
2014-1-14,35,29,23,30,24,18,100,81,60,29.77,29.72,29.63,10,8,2,22,10,31,0.00,5,Snow,217
2014-1-15,24,20,17,19,16,10,93,82,68,30.00,29.92,29.76,10,8,2,21,14,26,0.00,8,Snow,248
2014-1-16,28,22,17,27,19,10,100,87,73,29.92,29.68,29.56,10,6,0,18,15,24,0.00,8,Snow,190
2014-1-17,26,16,6,25,14,3,93,84,74,29.93,29.79,29.62,10,8,1,14,8,20,0.00,7,Snow,244
2014-1-18,17,14,10,16,11,9,93,87,73,29.91,29.85,29.77,10,7,1,17,8,,0.00,7,Snow,184
2014-1-19,32,20,10,27,17,9,100,87,79,29.78,29.67,29.50,10,8,3,26,9,34,0.00,4,Snow,222
2014-1-20,35,24,12,28,22,9,93,80,69,29.98,29.78,29.49,10,9,2,18,9,32,0.00,8,Snow,319
2014-1-21,12,8,3,9,-4,-8,85,61,44,30.18,30.12,29.99,10,9,4,20,11,29,0.00,4,Snow,19
2014-1-22,10,6,3,9,0,-8,92,74,56,30.15,29.98,29.88,10,6,2,18,7,22,0.00,8,Snow,204
2014-1-23,14,8,0,9,3,-4,92,83,57,30.46,30.27,29.96,10,6,1,14,8,22,0.00,6,Snow,244
2014-1-24,19,4,-9,16,0,-15,93,79,62,30.45,30.06,29.52,10,6,1,34,15,39,0.00,5,Snow,216
2014-1-25,26,17,8,25,13,3,100,83,59,29.77,29.51,29.31,10,4,0,28,17,38,0.00,7,Snow,272
2014-1-26,28,16,3,25,11,0,93,82,72,29.76,29.52,29.34,10,7,0,24,10,37,0.00,7,Snow,215
2014-1-27,19,5,-9,12,-2,-15,85,75,56,30.31,30.02,29.51,10,5,1,28,16,33,0.00,6,Snow,261
2014-1-28,1,-8,-16,-11,-16,-20,84,69,47,30.35,30.29,30.18,10,10,7,14,8,,0.00,0,,223
2014-1-29,15,5,-5,3,-4,-13,78,65,45,30.18,30.14,30.09,10,10,7,18,11,26,0.00,0,,222
2014-1-30,28,20,12,25,10,1,93,67,54,30.09,29.91,29.72,10,8,1,26,16,34,0.00,2,Snow,197
2014-1-31,30,27,24,27,22,19,93,81,69,30.10,30.03,29.83,10,9,2,14,6,16,0.00,5,Snow,271